createdAt,value
2018-07-16T00:33:09.951Z,5.90
2018-07-16T01:10:08.947Z,6.07
2018-07-16T01:40:14.748Z,6.37
2018-07-16T01:51:30.939Z,5.20
2018-07-16T02:13:06.378Z,5.80
2018-07-16T02:32:54.981Z,5.93
2018-07-16T02:41:25.829Z,6.00
2018-07-16T03:04:27.028Z,6.30
2018-07-16T04:02:46.348Z,7.77
2018-07-16T04:14:09.448Z,6.43
2018-07-16T04:58:23.491Z,5.40
2018-07-16T05:06:45.345Z,5.93
2018-07-16T05:50:57.172Z,9.60
2018-07-16T06:12:24.873Z,12.57
2018-07-16T06:23:46.211Z,8.23
2018-07-16T06:26:22.468Z,6.80
2018-07-16T06:29:43.457Z,6.67
2018-07-16T06:32:18.191Z,6.13
2018-07-16T06:34:53.718Z,6.00
2018-07-16T06:37:29.689Z,6.40
2018-07-16T06:40:04.364Z,5.97
2018-07-16T06:42:45.017Z,6.13
2018-07-16T06:45:22.068Z,5.93
2018-07-16T06:47:55.905Z,5.93
2018-07-16T06:50:29.772Z,5.37
2018-07-16T06:53:04.928Z,5.60
2018-07-16T06:55:38.825Z,5.53
2018-07-16T06:58:12.620Z,5.70
2018-07-16T07:00:46.566Z,5.90
2018-07-16T07:03:20.341Z,5.40
2018-07-16T07:05:54.173Z,5.33
2018-07-16T07:08:28.106Z,5.33
2018-07-16T07:11:01.858Z,4.90
2018-07-16T07:13:35.713Z,4.90
2018-07-16T07:16:09.562Z,4.90
2018-07-16T07:18:44.490Z,4.70
2018-07-16T07:21:18.936Z,4.47
2018-07-16T07:23:52.976Z,5.30
2018-07-16T07:26:29.150Z,4.97
2018-07-16T07:29:03.776Z,4.87
2018-07-16T07:31:38.932Z,4.83
2018-07-16T07:34:14.426Z,4.67
2018-07-16T07:36:48.919Z,4.87
2018-07-16T07:39:23.092Z,4.10
2018-07-16T07:41:57.957Z,3.63
2018-07-16T07:44:33.807Z,4.13
2018-07-16T07:47:07.612Z,3.87
2018-07-16T07:49:42.725Z,4.20
2018-07-16T07:52:16.685Z,3.50
2018-07-16T07:54:51.644Z,3.70
2018-07-16T07:57:25.945Z,3.87
2018-07-16T08:00:01.121Z,3.80
2018-07-16T08:02:36.261Z,3.80
2018-07-16T08:05:11.499Z,3.80
2018-07-16T08:07:45.517Z,3.40
2018-07-16T08:10:20.105Z,3.60
2018-07-16T08:12:54.637Z,3.37
2018-07-16T08:15:28.678Z,3.50
2018-07-16T08:18:03.159Z,3.53
2018-07-16T08:20:38.549Z,3.37
2018-07-16T08:23:12.502Z,3.20
2018-07-16T08:25:47.042Z,3.67
2018-07-16T08:28:21.648Z,3.33
2018-07-16T08:30:56.685Z,3.40
2018-07-16T08:33:31.342Z,3.10
2018-07-16T08:36:06.363Z,2.47
2018-07-16T08:38:40.910Z,2.80
2018-07-16T08:41:14.830Z,3.23
2018-07-16T08:43:48.873Z,3.20
2018-07-16T08:46:23.514Z,3.23
2018-07-16T08:48:58.701Z,3.23
2018-07-16T08:51:33.098Z,3.33
2018-07-16T08:54:07.972Z,3.27
2018-07-16T08:56:42.349Z,3.30
2018-07-16T08:59:16.975Z,3.17
2018-07-16T09:01:51.085Z,3.07
2018-07-16T09:04:26.009Z,3.13
2018-07-16T09:07:01.377Z,3.20
2018-07-16T09:09:35.297Z,3.10
2018-07-16T09:12:10.173Z,3.37
2018-07-16T09:14:44.806Z,3.00
2018-07-16T09:17:19.471Z,3.07
2018-07-16T09:19:54.110Z,3.70
2018-07-16T09:22:28.530Z,3.10
2018-07-16T09:25:02.419Z,3.00
2018-07-16T09:27:37.550Z,3.30
2018-07-16T09:30:12.887Z,3.30
2018-07-16T09:32:47.514Z,3.47
2018-07-16T09:35:22.520Z,2.93
2018-07-16T09:37:56.973Z,3.07
2018-07-16T09:40:30.811Z,3.00
2018-07-16T09:43:05.473Z,2.87
2018-07-16T09:45:39.927Z,2.70
2018-07-16T09:48:14.743Z,3.30
2018-07-16T09:50:49.288Z,3.10
2018-07-16T09:53:22.961Z,2.90
2018-07-16T09:55:57.323Z,2.80
2018-07-16T09:58:31.303Z,2.90
2018-07-16T10:01:10.448Z,3.00
2018-07-16T10:03:44.328Z,3.20
2018-07-16T10:06:18.934Z,2.77
2018-07-16T10:08:53.567Z,2.60
2018-07-16T10:11:27.513Z,3.13
2018-07-16T10:14:01.652Z,3.00
2018-07-16T10:16:36.662Z,3.00
2018-07-16T10:19:10.703Z,3.03
2018-07-16T10:21:44.661Z,3.20
2018-07-16T10:24:18.630Z,3.10
2018-07-16T10:26:53.417Z,2.93
2018-07-16T10:29:28.323Z,3.20
2018-07-16T10:32:03.752Z,2.53
2018-07-16T10:34:37.865Z,2.83
2018-07-16T10:37:12.180Z,2.90
2018-07-16T10:39:47.297Z,2.93
2018-07-16T10:42:21.181Z,3.13
2018-07-16T10:44:55.777Z,2.70
2018-07-16T10:47:29.904Z,3.03
2018-07-16T10:50:04.444Z,2.83
2018-07-16T10:52:38.757Z,2.97
2018-07-16T10:55:13.758Z,3.40
2018-07-16T10:57:47.680Z,2.90
2018-07-16T11:00:23.264Z,2.90
2018-07-16T11:02:57.437Z,2.73
2018-07-16T11:05:32.769Z,2.70
2018-07-16T11:08:08.014Z,2.80
2018-07-16T11:10:43.473Z,2.70
2018-07-16T11:13:17.600Z,2.50
2018-07-16T11:15:53.509Z,2.10
2018-07-16T11:18:27.362Z,2.60
2018-07-16T11:21:02.622Z,2.07
2018-07-16T11:23:38.439Z,2.10
2018-07-16T11:26:12.352Z,2.37
2018-07-16T11:28:47.091Z,2.30
2018-07-16T11:31:23.363Z,2.27
2018-07-16T11:33:57.358Z,2.10
2018-07-16T11:36:32.753Z,2.37
2018-07-16T11:39:07.850Z,2.20
2018-07-16T11:41:41.769Z,1.97
2018-07-16T11:44:16.160Z,1.70
2018-07-16T11:46:49.892Z,1.70
2018-07-16T11:49:25.070Z,1.70
2018-07-16T11:51:59.933Z,1.90
2018-07-16T11:54:35.476Z,1.83
2018-07-16T11:57:09.447Z,1.70
2018-07-16T11:59:43.139Z,1.90
2018-07-16T12:02:17.008Z,1.90
2018-07-16T12:04:50.856Z,1.70
2018-07-16T12:07:24.697Z,1.93
2018-07-16T12:09:58.337Z,1.80
2018-07-16T12:12:32.073Z,1.93
2018-07-16T12:15:06.713Z,2.13
2018-07-16T12:17:40.490Z,2.50
2018-07-16T12:20:15.360Z,2.03
2018-07-16T12:22:49.339Z,1.83
2018-07-16T12:25:23.241Z,2.17
2018-07-16T12:27:57.062Z,2.13
2018-07-16T12:30:30.752Z,2.00
2018-07-16T12:33:04.472Z,2.17
2018-07-16T12:35:38.856Z,2.00
2018-07-16T12:38:13.464Z,1.93
2018-07-16T12:40:48.156Z,2.33
2018-07-16T12:43:22.172Z,2.00
2018-07-16T12:45:56.960Z,2.20
2018-07-16T12:48:30.901Z,2.60
2018-07-16T12:51:06.039Z,2.90
2018-07-16T12:53:41.240Z,2.50
2018-07-16T12:56:15.371Z,2.43
2018-07-16T12:58:49.982Z,2.57
2018-07-16T13:01:24.101Z,2.83
2018-07-16T13:03:58.717Z,3.93
2018-07-16T13:06:33.772Z,3.90
2018-07-16T13:09:07.865Z,3.20
2018-07-16T13:11:41.894Z,3.00
2018-07-16T13:14:16.693Z,2.60
2018-07-16T13:16:50.864Z,2.60
2018-07-16T13:19:25.559Z,3.17
2018-07-16T13:21:59.742Z,2.73
2018-07-16T13:24:34.667Z,2.30
2018-07-16T13:27:08.816Z,2.10
2018-07-16T13:29:43.510Z,2.30
2018-07-16T13:32:17.379Z,2.53
2018-07-16T13:34:51.101Z,2.53
2018-07-16T13:37:24.731Z,2.43
2018-07-16T13:39:58.624Z,2.17
2018-07-16T13:42:32.489Z,2.17
2018-07-16T13:45:06.530Z,2.10
2018-07-16T13:47:40.302Z,1.97
2018-07-16T13:50:14.166Z,2.20
2018-07-16T13:52:48.021Z,2.40
2018-07-16T13:55:21.850Z,2.50
2018-07-16T13:57:55.789Z,2.20
2018-07-16T14:00:29.657Z,2.23
2018-07-16T14:03:04.305Z,2.27
2018-07-16T14:05:38.914Z,2.30
2018-07-16T14:08:12.743Z,2.20
2018-07-16T14:10:47.708Z,2.23
2018-07-16T14:13:22.069Z,2.10
2018-07-16T14:15:58.322Z,2.40
2018-07-16T14:18:33.062Z,2.37
2018-07-16T14:21:08.407Z,2.70
2018-07-16T14:23:43.170Z,2.13
2018-07-16T14:26:17.038Z,2.30
2018-07-16T14:28:51.907Z,2.20
2018-07-16T14:31:26.768Z,2.37
2018-07-16T14:34:01.312Z,2.13
2018-07-16T14:36:35.627Z,2.40
2018-07-16T14:39:09.719Z,2.37
2018-07-16T14:41:44.837Z,2.27
2018-07-16T14:44:19.836Z,2.50
2018-07-16T14:46:54.107Z,2.10
2018-07-16T14:49:28.594Z,2.30
2018-07-16T14:52:02.981Z,2.20
2018-07-16T14:54:37.536Z,2.33
2018-07-16T14:57:11.996Z,2.10
2018-07-16T14:59:46.898Z,2.10
2018-07-16T15:02:22.136Z,2.10
2018-07-16T15:04:56.754Z,2.23
2018-07-16T15:07:30.668Z,1.80
2018-07-16T15:10:04.971Z,2.13
2018-07-16T15:12:39.428Z,2.10
2018-07-16T15:15:13.701Z,2.57
2018-07-16T15:17:48.164Z,2.30
2018-07-16T15:20:22.905Z,1.93
2018-07-16T15:22:57.494Z,2.13
2018-07-16T15:25:32.099Z,2.30
2018-07-16T15:28:06.400Z,2.40
2018-07-16T15:30:40.436Z,2.37
2018-07-16T15:33:14.676Z,2.50
2018-07-16T15:35:50.316Z,2.37
2018-07-16T15:38:24.401Z,2.30
2018-07-16T15:41:00.045Z,2.50
2018-07-16T15:43:33.945Z,2.50
2018-07-16T15:46:08.383Z,2.30
2018-07-16T15:48:42.533Z,2.50
2018-07-16T15:51:17.564Z,2.23
2018-07-16T15:53:51.612Z,2.40
2018-07-16T15:56:25.678Z,2.60
2018-07-16T15:58:59.609Z,2.53
2018-07-16T16:01:34.585Z,2.50
2018-07-16T16:04:08.987Z,2.60
2018-07-16T16:06:42.902Z,2.50
2018-07-16T16:09:16.774Z,2.90
2018-07-16T16:11:50.436Z,2.90
2018-07-16T16:14:24.313Z,2.40
2018-07-16T16:16:58.135Z,2.83
2018-07-16T16:19:32.009Z,2.40
2018-07-16T16:22:05.806Z,2.63
2018-07-16T16:24:39.655Z,2.70
2018-07-16T16:27:13.322Z,2.77
2018-07-16T16:29:47.324Z,2.33
2018-07-16T16:32:21.253Z,2.63
2018-07-16T16:34:55.172Z,2.50
2018-07-16T16:37:29.023Z,3.13
2018-07-16T16:40:02.989Z,3.00
2018-07-16T16:42:36.670Z,2.67
2018-07-16T16:45:10.489Z,3.00
2018-07-16T16:47:44.411Z,2.63
2018-07-16T16:50:18.533Z,2.60
2018-07-16T16:52:52.368Z,3.03
2018-07-16T16:55:27.113Z,2.80
2018-07-16T16:58:01.936Z,3.23
2018-07-16T17:00:35.695Z,3.03
2018-07-16T17:03:09.443Z,3.03
2018-07-16T17:05:43.992Z,2.70
2018-07-16T17:08:17.863Z,3.17
2018-07-16T17:10:51.853Z,3.23
2018-07-16T17:13:25.606Z,3.10
2018-07-16T17:15:59.639Z,2.70
2018-07-16T17:18:33.376Z,2.97
2018-07-16T17:21:07.987Z,2.90
2018-07-16T17:23:42.633Z,3.33
2018-07-16T17:26:16.717Z,3.17
2018-07-16T17:28:51.103Z,2.90
2018-07-16T17:31:25.758Z,3.20
2018-07-16T17:33:59.788Z,3.00
2018-07-16T17:36:34.270Z,3.20
2018-07-16T17:39:08.969Z,3.33
2018-07-16T17:41:43.245Z,3.27
2018-07-16T17:44:18.298Z,3.17
2018-07-16T17:46:52.976Z,3.20
2018-07-16T17:49:27.378Z,3.20
2018-07-16T17:52:02.180Z,3.60
2018-07-16T17:54:36.338Z,3.20
2018-07-16T17:57:10.904Z,3.10
2018-07-16T17:59:46.518Z,3.20
2018-07-16T18:02:21.785Z,3.40
2018-07-16T18:04:57.156Z,3.40
2018-07-16T18:07:31.255Z,3.17
2018-07-16T18:10:04.961Z,3.07
2018-07-16T18:12:39.336Z,3.40
2018-07-16T18:15:14.019Z,3.70
2018-07-16T18:17:48.141Z,3.70
2018-07-16T18:20:21.809Z,3.70
2018-07-16T18:22:56.218Z,3.57
2018-07-16T18:25:31.233Z,3.87
2018-07-16T18:28:05.657Z,3.70
2018-07-16T18:30:40.157Z,3.60
2018-07-16T18:33:15.049Z,3.80
2018-07-16T18:35:49.627Z,4.23
2018-07-16T18:38:23.781Z,4.50
2018-07-16T18:40:58.754Z,3.77
2018-07-16T18:43:33.263Z,4.10
2018-07-16T18:46:07.454Z,4.07
2018-07-16T18:48:42.651Z,4.20
2018-07-16T18:51:16.664Z,3.77
2018-07-16T18:53:51.341Z,4.20
2018-07-16T18:56:26.222Z,4.20
2018-07-16T18:58:59.982Z,3.97
2018-07-16T19:01:33.865Z,3.90
2018-07-16T19:04:07.741Z,4.10
2018-07-16T19:06:41.939Z,4.03
2018-07-16T19:09:15.612Z,3.90
2018-07-16T19:11:49.676Z,3.83
2018-07-16T19:14:23.487Z,4.10
2018-07-16T19:16:57.323Z,4.33
2018-07-16T19:19:31.761Z,4.03
2018-07-16T19:22:06.084Z,4.27
2018-07-16T19:24:39.780Z,4.10
2018-07-16T19:27:13.659Z,4.40
2018-07-16T19:29:47.337Z,4.60
2018-07-16T19:32:21.227Z,4.47
2018-07-16T19:34:55.193Z,4.50
2018-07-16T19:37:29.192Z,4.37
2018-07-16T19:40:03.089Z,4.40
2018-07-16T19:42:37.153Z,6.67
2018-07-16T19:45:11.064Z,4.40
2018-07-16T19:47:44.817Z,4.33
2018-07-16T19:50:18.670Z,4.47
2018-07-16T19:52:52.447Z,4.43
2018-07-16T19:55:26.375Z,4.60
2018-07-16T19:58:00.130Z,4.50
2018-07-16T20:00:34.359Z,4.20
2018-07-16T20:03:08.314Z,4.43
2018-07-16T20:05:42.801Z,4.40
2018-07-16T20:20:56.388Z,4.87
2018-07-16T20:23:32.082Z,4.90
2018-07-16T20:57:26.883Z,5.57
2018-07-16T21:52:19.249Z,5.90
2018-07-16T23:05:30.375Z,5.30
2018-07-16T23:19:31.762Z,5.70
2018-07-16T23:22:14.596Z,5.33
2018-07-16T23:46:48.993Z,5.30
